Time;durP1;ratioP1;P1;durP2;ratioP2;P2;SDS_P1;SDS_P2;PMS_P1;PMS_P2;Temp;Humidity;BMP_temperature;BMP_pressure;BME280_temperature;BME280_humidity;BME280_pressure;Samples;Min_cycle;Max_cycle;Signal;HPM_P1;HPM_P2
2022/11/29 00:00:38;;;;;;;233.13;41.05;;;7.80;99.90;;;;;;5006117;28;20095;-63
2022/11/29 00:03:04;;;;;;;221.82;40.22;;;7.80;99.90;;;;;;5005721;28;20497;-63
2022/11/29 00:05:29;;;;;;;240.15;40.33;;;7.90;99.90;;;;;;4999643;28;20049;-63
2022/11/29 00:07:55;;;;;;;242.48;40.17;;;8.00;99.90;;;;;;4988944;28;20470;-64
2022/11/29 00:10:21;;;;;;;239.20;42.58;;;8.00;99.90;;;;;;4986037;28;20043;-63
2022/11/29 00:12:47;;;;;;;253.65;41.47;;;7.80;99.90;;;;;;4986645;28;20050;-63
2022/11/29 00:15:13;;;;;;;284.05;42.90;;;7.90;99.90;;;;;;4987256;28;20125;-63
2022/11/29 00:17:39;;;;;;;261.65;40.10;;;7.80;99.90;;;;;;4987242;28;20647;-63
2022/11/29 00:20:05;;;;;;;236.60;41.15;;;7.80;99.90;;;;;;4985609;28;20145;-63
2022/11/29 00:22:31;;;;;;;246.43;39.45;;;7.80;99.90;;;;;;4986737;28;20046;-63
2022/11/29 00:24:56;;;;;;;225.45;38.30;;;7.90;99.90;;;;;;5001810;28;20042;-63
2022/11/29 00:27:22;;;;;;;221.75;39.70;;;7.80;99.90;;;;;;4987280;28;20046;-63
2022/11/29 00:29:47;;;;;;;218.88;38.83;;;7.80;99.90;;;;;;4986121;28;20132;-63
2022/11/29 00:32:13;;;;;;;220.63;36.28;;;7.80;99.90;;;;;;4985791;28;20709;-64
2022/11/29 00:34:39;;;;;;;213.63;38.53;;;7.90;99.90;;;;;;4986150;28;20051;-63
2022/11/29 00:37:04;;;;;;;223.90;37.72;;;7.80;99.90;;;;;;4986679;28;20046;-63
2022/11/29 00:39:30;;;;;;;219.52;37.72;;;7.90;99.90;;;;;;4985865;28;20078;-63
2022/11/29 00:41:55;;;;;;;201.85;36.45;;;7.80;99.90;;;;;;4986523;28;20128;-62
2022/11/29 00:44:21;;;;;;;210.07;35.97;;;8.00;99.90;;;;;;4986744;28;20047;-63
2022/11/29 00:46:48;;;;;;;190.63;34.28;;;7.90;99.90;;;;;;4986835;28;20046;-64
2022/11/29 00:49:14;;;;;;;193.93;34.05;;;7.80;99.90;;;;;;4985562;28;20042;-64
2022/11/29 00:51:39;;;;;;;198.13;34.22;;;7.70;99.90;;;;;;4986866;28;20516;-62
2022/11/29 00:54:05;;;;;;;178.98;34.20;;;7.90;99.90;;;;;;4986176;28;20038;-63
2022/11/29 00:56:31;;;;;;;188.35;34.80;;;7.80;99.90;;;;;;4986142;28;20421;-63
2022/11/29 00:58:56;;;;;;;167.90;33.58;;;8.20;99.90;;;;;;4984894;28;20157;-63
2022/11/29 01:01:22;;;;;;;171.95;31.77;;;7.70;99.90;;;;;;4986409;28;20046;-63
2022/11/29 01:03:48;;;;;;;177.98;32.63;;;7.70;99.90;;;;;;4985666;28;20436;-65
2022/11/29 01:06:15;;;;;;;184.13;32.67;;;8.00;99.90;;;;;;4996314;28;20149;-62
2022/11/29 01:08:41;;;;;;;189.02;33.55;;;7.80;99.90;;;;;;4993019;28;20127;-62
2022/11/29 01:11:14;;;;;;;185.88;33.10;;;7.80;99.90;;;;;;5005526;28;20101;-64
2022/11/29 01:13:41;;;;;;;189.40;33.20;;;7.80;99.90;;;;;;5004692;28;20053;-64
2022/11/29 01:16:07;;;;;;;179.70;31.40;;;7.70;99.90;;;;;;5005931;28;20409;-63
2022/11/29 01:18:34;;;;;;;194.60;33.63;;;7.80;99.90;;;;;;5005084;28;20048;-63
2022/11/29 01:21:04;;;;;;;196.07;32.75;;;7.70;99.90;;;;;;5005380;28;20054;-64
2022/11/29 01:23:29;;;;;;;200.27;33.85;;;7.60;99.90;;;;;;5004771;28;20046;-62
2022/11/29 01:26:06;;;;;;;201.35;34.42;;;7.60;99.90;;;;;;5005451;28;20145;-63
2022/11/29 01:28:33;;;;;;;239.20;35.78;;;7.60;99.90;;;;;;5005398;28;20050;-63
2022/11/29 01:31:03;;;;;;;217.68;35.88;;;7.80;99.90;;;;;;5005056;28;20493;-63
2022/11/29 01:33:29;;;;;;;349.05;38.70;;;7.70;99.90;;;;;;5004875;28;20041;-63
2022/11/29 01:35:54;;;;;;;291.95;39.17;;;7.60;99.90;;;;;;5004579;28;20045;-62
2022/11/29 01:38:21;;;;;;;328.00;40.58;;;7.80;99.90;;;;;;5004591;28;20473;-64
2022/11/29 01:41:03;;;;;;;264.38;38.85;;;7.80;99.90;;;;;;5003838;28;20049;-63
2022/11/29 01:43:29;;;;;;;350.67;41.50;;;7.80;99.90;;;;;;5005391;28;20045;-62
2022/11/29 01:45:55;;;;;;;236.35;36.00;;;7.60;99.90;;;;;;5003976;28;20125;-63
2022/11/29 01:48:31;;;;;;;206.93;34.67;;;7.60;99.90;;;;;;5003902;28;20263;-64
2022/11/29 01:50:59;;;;;;;197.30;33.83;;;7.80;99.90;;;;;;5004718;28;20046;-63
2022/11/29 01:53:26;;;;;;;189.93;32.03;;;7.70;99.90;;;;;;5003470;28;20042;-63
2022/11/29 01:55:56;;;;;;;161.00;30.30;;;7.70;99.90;;;;;;5004450;28;20046;-64
2022/11/29 01:58:21;;;;;;;174.43;30.85;;;7.50;99.90;;;;;;5005534;28;20619;-64
2022/11/29 02:00:47;;;;;;;162.18;31.88;;;7.70;99.90;;;;;;5005125;28;20046;-62
2022/11/29 02:03:15;;;;;;;203.43;32.65;;;7.60;99.90;;;;;;5004422;28;20133;-63
2022/11/29 02:05:47;;;;;;;171.95;31.30;;;7.60;99.90;;;;;;4998086;28;20053;-64
2022/11/29 02:08:17;;;;;;;185.98;31.15;;;7.80;99.90;;;;;;4985639;28;20405;-63
2022/11/29 02:14:07;;;;;;;214.60;33.58;;;7.70;99.90;;;;;;5014147;23;20076;-62
2022/11/29 02:16:54;;;;;;;213.82;32.60;;;7.50;99.90;;;;;;5022496;28;20046;-64
2022/11/29 02:19:34;;;;;;;302.38;36.95;;;7.50;99.90;;;;;;5003314;28;20046;-63
2022/11/29 02:22:19;;;;;;;306.40;37.63;;;7.50;99.90;;;;;;5004385;28;20053;-63
2022/11/29 02:25:00;;;;;;;293.60;37.58;;;7.50;99.90;;;;;;5003089;28;20073;-62
2022/11/29 02:27:50;;;;;;;417.35;41.80;;;7.50;99.90;;;;;;5004631;28;20624;-63
2022/11/29 02:30:49;;;;;;;341.38;39.83;;;7.60;99.90;;;;;;5003219;28;20054;-63
2022/11/29 02:33:26;;;;;;;309.25;37.92;;;7.70;99.90;;;;;;5003024;28;20718;-63
2022/11/29 02:36:38;;;;;;;244.45;32.95;;;7.60;99.90;;;;;;5004750;28;20044;-62
2022/11/29 02:39:07;;;;;;;245.90;32.28;;;7.50;99.90;;;;;;5004511;28;20050;-63
2022/11/29 02:41:46;;;;;;;213.23;31.40;;;7.60;99.90;;;;;;5002935;28;20042;-62
2022/11/29 02:44:23;;;;;;;215.25;32.95;;;7.70;99.90;;;;;;5004215;28;20057;-63
2022/11/29 02:47:26;;;;;;;212.43;31.83;;;7.60;99.90;;;;;;5002551;28;20535;-63
2022/11/29 02:50:19;;;;;;;225.43;31.65;;;7.50;99.90;;;;;;5004265;28;20779;-63
2022/11/29 02:53:09;;;;;;;226.02;33.20;;;7.60;99.90;;;;;;5004009;28;20054;-63
2022/11/29 02:55:40;;;;;;;211.27;31.92;;;7.50;99.90;;;;;;5003227;28;20424;-63
2022/11/29 02:58:27;;;;;;;220.45;34.97;;;7.70;99.90;;;;;;5002676;28;20042;-64
2022/11/29 03:01:10;;;;;;;307.13;37.03;;;7.50;99.90;;;;;;5003440;28;20042;-62
2022/11/29 03:03:42;;;;;;;257.65;35.03;;;7.70;99.90;;;;;;5000871;28;20046;-63
2022/11/29 03:06:22;;;;;;;275.55;36.55;;;7.60;99.90;;;;;;5011522;28;20132;-63
2022/11/29 03:09:01;;;;;;;218.52;33.22;;;7.40;99.90;;;;;;5003484;28;20507;-62
2022/11/29 03:11:53;;;;;;;216.70;34.50;;;7.60;99.90;;;;;;5001795;28;20420;-64
2022/11/29 03:14:23;;;;;;;168.27;30.92;;;7.60;99.90;;;;;;4994438;28;20108;-63
2022/11/29 03:17:12;;;;;;;195.63;31.77;;;7.70;99.90;;;;;;5002838;28;20107;-63
2022/11/29 03:20:15;;;;;;;194.80;31.55;;;7.40;99.90;;;;;;4992172;28;20056;-62
2022/11/29 03:22:54;;;;;;;204.40;31.70;;;7.50;99.90;;;;;;5003817;28;20053;-63
2022/11/29 03:25:31;;;;;;;270.13;35.22;;;8.10;99.90;;;;;;5003708;28;20546;-63
2022/11/29 03:28:12;;;;;;;242.60;34.53;;;7.60;99.90;;;;;;5003779;28;20042;-63
2022/11/29 03:30:42;;;;;;;290.55;36.75;;;7.60;99.90;;;;;;5002721;28;20049;-63
2022/11/29 03:33:11;;;;;;;301.55;38.28;;;7.50;99.90;;;;;;5003188;28;20061;-63
2022/11/29 03:35:43;;;;;;;307.42;36.70;;;7.50;99.90;;;;;;5003939;28;20054;-63
2022/11/29 03:38:15;;;;;;;243.90;33.72;;;7.70;99.90;;;;;;5003870;28;20046;-63
2022/11/29 03:40:49;;;;;;;270.95;36.53;;;7.40;99.90;;;;;;5003249;28;20042;-63
2022/11/29 03:43:26;;;;;;;210.20;33.80;;;7.50;99.90;;;;;;5003151;28;20049;-63
2022/11/29 03:46:03;;;;;;;248.88;34.97;;;7.70;99.90;;;;;;5002601;28;20151;-63
2022/11/29 03:48:42;;;;;;;254.80;36.08;;;7.60;99.90;;;;;;5017580;28;20053;-63
2022/11/29 03:51:17;;;;;;;241.80;35.45;;;7.50;99.90;;;;;;5002321;28;20132;-63
2022/11/29 03:54:18;;;;;;;196.02;31.10;;;7.60;99.90;;;;;;5003190;28;20046;-63
2022/11/29 03:56:44;;;;;;;229.98;33.40;;;7.40;99.90;;;;;;4990636;28;20108;-62
2022/11/29 03:59:27;;;;;;;248.07;33.97;;;7.60;99.90;;;;;;5003156;28;20046;-63
2022/11/29 04:02:14;;;;;;;205.68;31.88;;;7.60;99.90;;;;;;5001113;28;20053;-63
2022/11/29 04:05:00;;;;;;;204.20;31.98;;;7.40;99.90;;;;;;5007113;28;20046;-63
2022/11/29 04:08:03;;;;;;;223.70;35.08;;;7.60;99.90;;;;;;5007440;28;20050;-63
2022/11/29 04:10:48;;;;;;;243.48;35.70;;;7.40;99.90;;;;;;5001186;28;20050;-64
2022/11/29 04:13:51;;;;;;;232.93;34.33;;;7.60;99.90;;;;;;5003618;28;20096;-62
2022/11/29 04:16:31;;;;;;;274.05;35.33;;;7.60;99.90;;;;;;5002976;28;20503;-62
2022/11/29 04:19:34;;;;;;;243.63;33.58;;;7.40;99.90;;;;;;5001719;28;20057;-63
2022/11/29 04:22:07;;;;;;;233.23;34.25;;;7.40;99.90;;;;;;5003323;28;20081;-63
2022/11/29 04:24:54;;;;;;;229.07;33.67;;;7.60;99.90;;;;;;5002793;28;20104;-62
2022/11/29 04:27:44;;;;;;;257.25;35.40;;;7.60;99.90;;;;;;5002800;28;20042;-62
2022/11/29 04:30:17;;;;;;;233.27;32.40;;;7.60;99.90;;;;;;5002864;28;20053;-63
2022/11/29 04:33:16;;;;;;;199.23;33.15;;;7.80;99.90;;;;;;5001808;28;20034;-62
2022/11/29 04:36:08;;;;;;;222.07;32.67;;;7.50;99.90;;;;;;5001413;28;20042;-63
2022/11/29 04:38:46;;;;;;;200.10;33.35;;;7.40;99.90;;;;;;5001781;28;20403;-62
2022/11/29 04:41:49;;;;;;;160.85;30.10;;;7.40;99.90;;;;;;5001857;28;20227;-63
2022/11/29 04:44:36;;;;;;;151.18;29.50;;;7.50;99.90;;;;;;5006928;28;20052;-63
2022/11/29 04:47:28;;;;;;;179.48;31.75;;;7.40;99.90;;;;;;5006221;28;20545;-63
2022/11/29 04:50:15;;;;;;;158.57;30.98;;;7.40;99.90;;;;;;5004188;28;20137;-63
2022/11/29 04:53:04;;;;;;;172.02;30.95;;;7.40;99.90;;;;;;5006074;28;20128;-62
2022/11/29 04:55:48;;;;;;;152.77;29.25;;;7.40;99.90;;;;;;5004742;28;20045;-63
2022/11/29 04:58:38;;;;;;;148.47;28.87;;;7.60;99.90;;;;;;5003615;28;20503;-63
2022/11/29 05:01:24;;;;;;;123.68;26.08;;;7.60;99.90;;;;;;5005340;28;20345;-63
2022/11/29 05:04:00;;;;;;;129.77;27.95;;;7.40;99.90;;;;;;5005217;28;20073;-64
2022/11/29 05:07:00;;;;;;;146.10;29.15;;;7.80;99.90;;;;;;5010766;28;20042;-63
2022/11/29 05:09:31;;;;;;;134.25;28.05;;;7.50;99.90;;;;;;5004318;28;20054;-63
2022/11/29 05:12:28;;;;;;;128.48;27.23;;;7.40;99.90;;;;;;5005033;28;20172;-62
2022/11/29 05:15:31;;;;;;;127.93;27.95;;;7.50;99.90;;;;;;5004913;28;20260;-63
2022/11/29 05:18:31;;;;;;;119.28;26.85;;;7.60;99.90;;;;;;5003961;28;20104;-63
2022/11/29 05:21:10;;;;;;;118.70;27.33;;;7.50;99.90;;;;;;5005427;28;20496;-63
2022/11/29 05:24:17;;;;;;;112.30;25.67;;;7.70;99.90;;;;;;5005285;28;20432;-63
2022/11/29 05:26:56;;;;;;;112.50;26.02;;;7.40;99.90;;;;;;4994764;28;20139;-62
2022/11/29 05:29:38;;;;;;;105.05;26.88;;;7.60;99.90;;;;;;5005671;28;20527;-63
2022/11/29 05:32:27;;;;;;;104.38;26.05;;;7.50;99.90;;;;;;5005432;28;20045;-63
2022/11/29 05:35:14;;;;;;;121.95;26.83;;;7.40;99.90;;;;;;5005397;28;20057;-63
2022/11/29 05:37:47;;;;;;;108.32;26.60;;;7.30;99.90;;;;;;5020776;28;20054;-63
2022/11/29 05:40:21;;;;;;;127.00;27.50;;;7.30;99.90;;;;;;5020576;28;20104;-63
2022/11/29 05:42:53;;;;;;;124.22;27.88;;;7.50;99.90;;;;;;5004458;28;20049;-63
2022/11/29 05:45:43;;;;;;;112.07;26.27;;;7.40;99.90;;;;;;5005035;28;20108;-63
2022/11/29 05:48:35;;;;;;;120.20;26.48;;;7.40;99.90;;;;;;5004365;28;20584;-63
2022/11/29 05:51:39;;;;;;;98.38;25.42;;;7.50;99.90;;;;;;5004902;28;20057;-63
2022/11/29 05:54:20;;;;;;;107.00;27.90;;;7.30;99.90;;;;;;5003981;28;20057;-64
2022/11/29 05:56:51;;;;;;;120.78;28.63;;;7.20;99.90;;;;;;5004827;28;20120;-62
2022/11/29 05:59:27;;;;;;;123.18;26.73;;;7.30;99.90;;;;;;5004808;28;20037;-62
2022/11/29 06:02:11;;;;;;;113.45;28.95;;;7.30;99.90;;;;;;5004024;28;20042;-62
2022/11/29 06:04:56;;;;;;;96.05;26.35;;;7.70;99.90;;;;;;5008589;28;20049;-63
2022/11/29 06:07:55;;;;;;;88.68;25.27;;;7.50;99.90;;;;;;5018203;28;20037;-62
2022/11/29 06:10:31;;;;;;;94.47;25.48;;;7.30;99.90;;;;;;5023320;28;20048;-63
2022/11/29 06:13:31;;;;;;;101.20;27.13;;;7.10;99.90;;;;;;5024353;28;20107;-62
2022/11/29 06:16:22;;;;;;;102.65;27.30;;;7.30;99.90;;;;;;5023818;28;20042;-63
2022/11/29 06:19:11;;;;;;;114.70;28.80;;;7.00;99.90;;;;;;5023333;28;20429;-62
2022/11/29 06:22:04;;;;;;;107.00;27.08;;;7.10;99.90;;;;;;5024102;28;20041;-62
2022/11/29 06:24:43;;;;;;;98.45;27.42;;;7.10;99.90;;;;;;5023722;28;20050;-63
2022/11/29 06:27:28;;;;;;;106.43;29.05;;;7.20;99.90;;;;;;5024246;28;20081;-62
2022/11/29 06:30:09;;;;;;;110.90;28.90;;;7.20;99.90;;;;;;5024076;28;20045;-62
2022/11/29 06:32:43;;;;;;;122.70;29.27;;;7.10;99.90;;;;;;5023468;28;20550;-64
2022/11/29 06:35:27;;;;;;;124.03;30.65;;;7.10;99.90;;;;;;5022223;28;20124;-63
2022/11/29 06:37:56;;;;;;;126.45;30.05;;;7.10;99.90;;;;;;5023574;28;20053;-63
2022/11/29 06:40:22;;;;;;;133.98;30.92;;;7.00;99.90;;;;;;5022460;28;20061;-62
2022/11/29 06:42:48;;;;;;;113.63;29.65;;;7.10;99.90;;;;;;5023478;28;20136;-63
2022/11/29 06:45:14;;;;;;;125.10;31.35;;;7.00;99.90;;;;;;5022709;28;20498;-63
2022/11/29 06:47:50;;;;;;;121.13;31.10;;;7.10;99.90;;;;;;5022865;28;20124;-63
2022/11/29 06:50:51;;;;;;;140.43;32.63;;;7.10;99.90;;;;;;5022349;28;20060;-63
2022/11/29 06:53:42;;;;;;;116.47;29.42;;;7.00;99.90;;;;;;5021423;28;20400;-62
2022/11/29 06:56:41;;;;;;;115.32;30.92;;;7.20;99.90;;;;;;5021789;28;20106;-64
2022/11/29 06:59:33;;;;;;;111.00;31.17;;;7.20;99.90;;;;;;5024046;28;20049;-63
2022/11/29 07:02:16;;;;;;;113.15;31.70;;;6.90;99.90;;;;;;5022730;28;20119;-63
2022/11/29 07:05:19;;;;;;;102.63;29.73;;;7.00;99.90;;;;;;5016608;28;20046;-63
2022/11/29 07:07:47;;;;;;;102.72;29.23;;;7.00;99.90;;;;;;4998173;28;20091;-63
2022/11/29 07:10:17;;;;;;;101.70;30.42;;;7.20;99.90;;;;;;5003707;28;20037;-64
2022/11/29 07:12:45;;;;;;;97.45;30.35;;;6.90;99.90;;;;;;5002329;28;20602;-64
2022/11/29 07:15:16;;;;;;;93.82;28.80;;;7.00;99.90;;;;;;5003505;28;20155;-64
2022/11/29 07:17:48;;;;;;;91.03;29.15;;;6.90;99.90;;;;;;5002511;28;20050;-63
2022/11/29 07:20:37;;;;;;;97.72;29.48;;;7.10;99.90;;;;;;5003480;28;20049;-63
2022/11/29 07:23:26;;;;;;;87.28;28.92;;;7.00;99.90;;;;;;5003019;28;20504;-63
2022/11/29 07:26:17;;;;;;;84.28;28.55;;;6.80;99.90;;;;;;5001473;28;20091;-63
2022/11/29 07:28:46;;;;;;;78.35;27.27;;;7.00;99.90;;;;;;5002389;28;20084;-64
2022/11/29 07:31:52;;;;;;;79.25;27.70;;;7.00;99.90;;;;;;5002940;28;20092;-64
2022/11/29 07:34:38;;;;;;;81.93;27.73;;;7.00;99.90;;;;;;5001681;28;20050;-64
2022/11/29 07:37:12;;;;;;;84.32;26.83;;;6.80;99.90;;;;;;5002409;28;20045;-64
2022/11/29 07:40:19;;;;;;;82.10;27.40;;;6.90;99.90;;;;;;5002996;28;20958;-64
2022/11/29 07:43:15;;;;;;;87.43;29.25;;;7.00;99.90;;;;;;4991635;28;20770;-63
2022/11/29 07:45:41;;;;;;;79.28;27.48;;;6.70;99.90;;;;;;4993721;28;20050;-64
2022/11/29 07:48:10;;;;;;;91.05;29.63;;;6.80;99.90;;;;;;5018028;28;20662;-63
2022/11/29 07:50:36;;;;;;;88.38;29.52;;;7.00;99.90;;;;;;5003869;28;20180;-63
2022/11/29 07:53:02;;;;;;;86.30;29.15;;;6.80;99.90;;;;;;5003212;28;20465;-65
2022/11/29 07:55:28;;;;;;;82.30;28.13;;;7.10;99.90;;;;;;5019550;28;20065;-63
2022/11/29 07:57:55;;;;;;;78.65;29.17;;;7.10;99.90;;;;;;5021314;28;20277;-63
2022/11/29 08:00:21;;;;;;;75.85;27.27;;;7.00;99.90;;;;;;5022899;28;20091;-64
2022/11/29 08:02:48;;;;;;;84.90;29.27;;;6.90;99.90;;;;;;5019867;28;20050;-63
2022/11/29 08:05:14;;;;;;;78.95;27.88;;;7.00;99.90;;;;;;5015813;28;20049;-63
2022/11/29 08:07:40;;;;;;;78.25;27.17;;;7.00;99.90;;;;;;5007188;28;20041;-63
2022/11/29 08:10:10;;;;;;;75.07;28.10;;;6.80;99.90;;;;;;5002062;28;20038;-64
2022/11/29 08:12:40;;;;;;;74.90;28.30;;;6.90;99.90;;;;;;5001455;28;20065;-64
2022/11/29 08:15:07;;;;;;;71.68;26.75;;;7.40;99.90;;;;;;5005583;28;20047;-63
2022/11/29 08:17:33;;;;;;;63.88;26.38;;;6.90;99.90;;;;;;5021895;28;20072;-64
2022/11/29 08:19:58;;;;;;;69.43;27.70;;;7.10;99.90;;;;;;5025648;28;20625;-63
2022/11/29 08:22:24;;;;;;;72.00;27.63;;;7.20;99.90;;;;;;5026260;28;20057;-63
2022/11/29 08:24:49;;;;;;;70.30;26.27;;;7.00;99.90;;;;;;5026599;28;20483;-64
2022/11/29 08:27:15;;;;;;;59.17;25.13;;;7.60;99.90;;;;;;5026177;28;20041;-64
2022/11/29 08:29:41;;;;;;;64.07;24.50;;;7.10;99.90;;;;;;5025874;28;20033;-64
2022/11/29 08:32:07;;;;;;;65.60;25.35;;;7.10;99.90;;;;;;5025084;28;20531;-63
2022/11/29 08:34:33;;;;;;;65.07;24.92;;;7.20;99.90;;;;;;5025533;28;20072;-64
2022/11/29 08:36:59;;;;;;;60.25;24.05;;;7.30;99.90;;;;;;5025130;28;20080;-64
2022/11/29 08:39:24;;;;;;;69.20;26.73;;;7.40;99.90;;;;;;5025258;28;20042;-63
2022/11/29 08:41:50;;;;;;;63.50;25.80;;;7.20;99.90;;;;;;5025128;28;20514;-64
2022/11/29 08:44:17;;;;;;;66.72;26.25;;;7.30;99.90;;;;;;5024430;28;20046;-65
2022/11/29 08:49:27;;;;;;;67.57;26.48;;;7.90;99.90;;;;;;5025377;28;20056;-63
2022/11/29 08:53:40;;;;;;;66.07;26.42;;;7.60;99.90;;;;;;5023763;28;20049;-60
2022/11/29 08:54:40;;;;;;;65.15;24.25;;;7.10;99.90;;;;;;5023701;28;20057;-63
2022/11/29 08:57:06;;;;;;;65.95;26.17;;;7.40;99.90;;;;;;5023771;28;20049;-63
2022/11/29 08:59:32;;;;;;;65.07;24.77;;;7.40;99.90;;;;;;5025007;28;20061;-63
2022/11/29 09:01:58;;;;;;;60.22;24.45;;;7.30;99.90;;;;;;5023667;28;20040;-64
2022/11/29 09:04:23;;;;;;;60.13;23.52;;;7.90;99.90;;;;;;5018784;28;20533;-64
2022/11/29 09:06:49;;;;;;;62.33;25.13;;;7.50;99.90;;;;;;5014333;28;20771;-63
2022/11/29 09:09:15;;;;;;;58.95;24.92;;;7.40;99.90;;;;;;5024054;28;20052;-64
2022/11/29 09:11:41;;;;;;;54.58;24.38;;;7.30;99.90;;;;;;5023242;28;20712;-63
2022/11/29 09:14:10;;;;;;;59.85;26.38;;;7.60;99.90;;;;;;5025186;28;20057;-63
2022/11/29 09:16:37;;;;;;;55.22;25.10;;;7.30;99.90;;;;;;5022698;28;20076;-63
2022/11/29 09:19:04;;;;;;;59.22;24.90;;;7.50;99.90;;;;;;5022683;28;20045;-63
2022/11/29 09:21:31;;;;;;;59.42;25.40;;;7.70;99.90;;;;;;5023602;28;20041;-63
2022/11/29 09:24:01;;;;;;;53.08;24.30;;;7.40;99.90;;;;;;5024295;28;20171;-63
2022/11/29 09:26:29;;;;;;;57.45;24.83;;;7.70;99.90;;;;;;5023531;28;20112;-63
2022/11/29 09:28:57;;;;;;;54.22;24.52;;;7.50;99.90;;;;;;5022710;28;20099;-63
2022/11/29 09:31:22;;;;;;;47.42;22.02;;;7.60;99.90;;;;;;5024229;28;20045;-63
2022/11/29 09:33:48;;;;;;;53.97;23.88;;;7.70;99.90;;;;;;5023224;28;20079;-63
2022/11/29 09:36:14;;;;;;;46.10;21.98;;;7.50;99.90;;;;;;5023925;28;20046;-63
2022/11/29 09:38:40;;;;;;;46.42;21.77;;;7.50;99.90;;;;;;5022853;28;20045;-63
2022/11/29 09:41:41;;;;;;;43.00;21.15;;;7.40;99.90;;;;;;5022306;28;20076;-63
2022/11/29 09:44:15;;;;;;;41.92;20.40;;;7.70;99.90;;;;;;4999901;28;20072;-63
2022/11/29 09:46:56;;;;;;;42.92;20.15;;;7.60;99.90;;;;;;5022118;28;20065;-64
2022/11/29 09:49:52;;;;;;;46.53;20.60;;;7.80;99.90;;;;;;5023963;28;20123;-63
2022/11/29 09:52:40;;;;;;;45.50;20.17;;;7.50;99.90;;;;;;5023526;28;20053;-63
2022/11/29 09:55:35;;;;;;;49.70;20.73;;;7.60;99.90;;;;;;5024435;28;20037;-64
2022/11/29 09:58:02;;;;;;;41.07;20.47;;;7.60;99.90;;;;;;5023350;28;20065;-64
2022/11/29 10:00:31;;;;;;;50.88;21.25;;;7.80;99.90;;;;;;5024358;28;20680;-64
2022/11/29 10:03:08;;;;;;;47.50;21.10;;;7.60;99.90;;;;;;5023059;28;20045;-64
2022/11/29 10:05:43;;;;;;;40.95;20.52;;;7.50;99.90;;;;;;5017877;28;20148;-63
2022/11/29 10:08:37;;;;;;;44.33;20.92;;;7.70;99.90;;;;;;5003280;28;20533;-63
2022/11/29 10:11:14;;;;;;;45.25;21.50;;;7.80;99.90;;;;;;5003785;28;20081;-64
2022/11/29 10:13:44;;;;;;;44.10;21.30;;;7.60;99.90;;;;;;5002497;28;20099;-63
2022/11/29 10:16:30;;;;;;;41.08;19.67;;;7.60;99.90;;;;;;5003077;28;20037;-64
2022/11/29 10:19:16;;;;;;;44.53;19.67;;;7.60;99.90;;;;;;5002798;28;20120;-63
2022/11/29 10:21:48;;;;;;;40.90;19.30;;;7.60;99.90;;;;;;5002709;28;20050;-64
2022/11/29 10:24:19;;;;;;;43.78;20.60;;;7.60;99.90;;;;;;5004937;28;20046;-64
2022/11/29 10:26:44;;;;;;;45.03;20.77;;;7.60;99.90;;;;;;5004471;28;20037;-64
2022/11/29 10:29:13;;;;;;;44.40;20.08;;;7.50;99.90;;;;;;5002955;28;20042;-64
2022/11/29 10:31:42;;;;;;;45.17;21.17;;;7.60;99.90;;;;;;5003494;28;20042;-63
2022/11/29 10:34:14;;;;;;;46.30;20.40;;;7.90;99.90;;;;;;5003298;28;20413;-64
2022/11/29 10:36:47;;;;;;;43.22;20.48;;;8.50;99.90;;;;;;5003946;28;20049;-63
2022/11/29 10:39:22;;;;;;;52.10;20.90;;;7.70;99.90;;;;;;5003202;28;20046;-63
2022/11/29 10:41:54;;;;;;;42.50;21.23;;;8.60;99.90;;;;;;5001865;28;20045;-64
2022/11/29 10:44:20;;;;;;;42.65;20.83;;;8.60;99.90;;;;;;5003595;28;20044;-65
2022/11/29 10:46:46;;;;;;;43.30;19.75;;;8.00;99.90;;;;;;5003044;28;20120;-64
2022/11/29 10:49:15;;;;;;;51.78;21.77;;;8.30;99.90;;;;;;5003732;28;20122;-64
2022/11/29 10:51:42;;;;;;;40.13;22.70;;;8.00;99.90;;;;;;5003905;28;20054;-63
2022/11/29 10:54:25;;;;;;;49.40;21.90;;;8.00;99.90;;;;;;5004011;28;20046;-64
2022/11/29 10:56:52;;;;;;;42.42;21.48;;;8.20;99.90;;;;;;5002763;28;20054;-64
2022/11/29 10:59:21;;;;;;;43.50;21.95;;;7.90;99.90;;;;;;5003331;28;20057;-64
2022/11/29 11:01:48;;;;;;;44.22;23.55;;;8.30;99.90;;;;;;5001271;28;20054;-63
2022/11/29 11:04:26;;;;;;;42.70;21.05;;;8.20;99.90;;;;;;5004978;28;20496;-63
2022/11/29 11:07:00;;;;;;;40.90;21.38;;;8.00;99.90;;;;;;5008708;28;20688;-64
2022/11/29 11:09:47;;;;;;;41.75;20.85;;;8.30;99.90;;;;;;5001877;28;20041;-67
2022/11/29 11:12:13;;;;;;;47.80;22.00;;;8.10;99.90;;;;;;5002173;28;20707;-64
2022/11/29 11:14:38;;;;;;;47.47;22.25;;;8.90;99.90;;;;;;5001094;28;20125;-64
2022/11/29 11:17:25;;;;;;;42.42;21.10;;;8.40;99.90;;;;;;5001445;28;20077;-64
2022/11/29 11:19:53;;;;;;;;;;;8.50;99.90;;;;;;5002880;28;20088;-64
2022/11/29 11:22:22;;;;;;;47.72;21.27;;;8.10;99.90;;;;;;5002379;28;20292;-64
2022/11/29 11:24:56;;;;;;;43.42;22.70;;;8.20;99.90;;;;;;5004019;28;20809;-64
2022/11/29 11:27:40;;;;;;;43.17;22.10;;;8.40;99.90;;;;;;5003250;28;20038;-64
2022/11/29 11:30:19;;;;;;;41.05;20.70;;;8.30;99.90;;;;;;5003235;28;20041;-64
2022/11/29 11:33:22;;;;;;;42.97;20.92;;;8.20;99.90;;;;;;5016694;28;20761;-65
2022/11/29 11:36:06;;;;;;;43.33;20.90;;;8.10;99.90;;;;;;5002026;28;20129;-64
2022/11/29 11:38:35;;;;;;;34.63;18.60;;;8.40;99.90;;;;;;5002692;28;20046;-63
2022/11/29 11:41:17;;;;;;;36.53;19.38;;;8.10;99.90;;;;;;5002408;28;20049;-64
2022/11/29 11:43:57;;;;;;;34.85;19.98;;;8.40;99.90;;;;;;5002358;28;20046;-64
2022/11/29 11:46:46;;;;;;;34.95;19.58;;;8.40;99.90;;;;;;5002466;28;20045;-65
2022/11/29 11:49:13;;;;;;;37.33;19.83;;;8.40;99.90;;;;;;5002683;28;20041;-64
2022/11/29 11:51:41;;;;;;;39.35;21.38;;;8.20;99.90;;;;;;5002502;28;20041;-63
2022/11/29 11:54:13;;;;;;;37.75;20.40;;;8.00;99.90;;;;;;5002921;28;20053;-64
2022/11/29 11:56:39;;;;;;;39.55;20.60;;;8.40;99.90;;;;;;5003209;28;20050;-64
2022/11/29 11:59:05;;;;;;;44.20;21.90;;;8.10;99.90;;;;;;5002999;28;20358;-63
2022/11/29 12:01:38;;;;;;;15.85;8.48;;;8.00;99.90;;;;;;5017598;28;20405;-59
2022/11/29 12:04:31;;;;;;;42.50;23.35;;;8.30;99.90;;;;;;5004592;28;20042;-58
2022/11/29 12:07:13;;;;;;;42.33;22.85;;;8.50;99.90;;;;;;5010366;28;20129;-59
2022/11/29 12:09:55;;;;;;;41.72;22.48;;;8.50;99.90;;;;;;5003069;28;20046;-58
2022/11/29 12:12:40;;;;;;;37.08;21.30;;;8.60;99.90;;;;;;5017579;28;20068;-59
2022/11/29 12:15:19;;;;;;;35.30;21.35;;;8.60;99.90;;;;;;5002662;28;20427;-58
2022/11/29 12:17:57;;;;;;;39.15;21.40;;;8.60;99.90;;;;;;5001272;28;20169;-58
2022/11/29 12:20:39;;;;;;;33.58;19.77;;;8.40;99.90;;;;;;5003135;28;20284;-57
2022/11/29 12:23:29;;;;;;;29.65;19.33;;;8.40;99.90;;;;;;5001610;28;20525;-59
2022/11/29 12:26:09;;;;;;;31.23;18.77;;;8.30;99.90;;;;;;5002611;28;20096;-58
2022/11/29 12:28:38;;;;;;;29.35;19.08;;;8.40;99.90;;;;;;5002386;28;20124;-59
2022/11/29 12:31:32;;;;;;;31.05;19.05;;;8.20;99.90;;;;;;5003130;28;20037;-59
2022/11/29 12:34:18;;;;;;;28.42;17.42;;;8.60;99.90;;;;;;5001747;28;20048;-59
2022/11/29 12:37:04;;;;;;;32.97;19.17;;;8.10;99.90;;;;;;5002638;28;20053;-58
2022/11/29 12:39:36;;;;;;;30.10;18.90;;;8.30;99.90;;;;;;5003237;28;20038;-59
2022/11/29 12:42:15;;;;;;;33.92;19.90;;;8.30;99.90;;;;;;5002007;28;20129;-59
2022/11/29 12:45:06;;;;;;;32.45;18.40;;;8.30;99.90;;;;;;5001004;28;20060;-59
2022/11/29 12:47:40;;;;;;;32.83;19.15;;;7.90;99.90;;;;;;5001503;28;20133;-58
2022/11/29 12:50:24;;;;;;;35.65;19.25;;;8.30;99.90;;;;;;5002054;28;20068;-58
2022/11/29 12:53:08;;;;;;;31.27;18.40;;;8.30;99.90;;;;;;5002505;28;20050;-59
2022/11/29 12:55:55;;;;;;;38.67;20.15;;;7.90;99.90;;;;;;5002342;28;20488;-58
2022/11/29 12:58:53;;;;;;;40.38;20.52;;;7.90;99.90;;;;;;5002164;28;20057;-59
2022/11/29 13:01:54;;;;;;;43.75;20.45;;;8.00;99.90;;;;;;4992327;28;20590;-58
2022/11/29 13:04:26;;;;;;;44.30;21.08;;;7.80;99.90;;;;;;4997188;28;20052;-59
2022/11/29 13:07:07;;;;;;;44.63;20.45;;;7.90;99.90;;;;;;5014586;28;20050;-59
2022/11/29 13:09:44;;;;;;;44.22;19.73;;;7.60;99.90;;;;;;5003975;28;20088;-59
2022/11/29 13:12:24;;;;;;;42.60;21.30;;;7.60;99.90;;;;;;5005513;28;20085;-58
2022/11/29 13:15:22;;;;;;;42.97;20.77;;;7.90;99.90;;;;;;5005858;28;20054;-59
2022/11/29 13:18:08;;;;;;;46.25;21.42;;;7.70;99.90;;;;;;4999501;28;20180;-59
2022/11/29 13:20:43;;;;;;;52.63;22.70;;;7.90;99.90;;;;;;5005178;28;20034;-59
2022/11/29 13:23:17;;;;;;;53.15;22.05;;;7.80;99.90;;;;;;5006532;28;20049;-59
2022/11/29 13:25:49;;;;;;;46.15;21.33;;;7.90;99.90;;;;;;5045260;28;20048;-59
2022/11/29 13:28:21;;;;;;;47.55;22.42;;;7.60;99.90;;;;;;5045356;28;20049;-59